sensor_id;sensor_type;location;lat;lon;timestamp;pressure;altitude;pressure_sealevel;temperature;humidity
8051;BME280;4068;42.158;24.732;2023-04-07T00:00:28;99454.78;;;6.15;53.48
8051;BME280;4068;42.158;24.732;2023-04-07T00:02:54;99469.16;;;6.10;53.95
8051;BME280;4068;42.158;24.732;2023-04-07T00:05:21;99465.13;;;6.04;54.38
8051;BME280;4068;42.158;24.732;2023-04-07T00:07:46;99476.34;;;6.08;54.83
8051;BME280;4068;42.158;24.732;2023-04-07T00:10:12;99469.38;;;6.07;55.09
8051;BME280;4068;42.158;24.732;2023-04-07T00:12:37;99475.75;;;6.02;54.74
8051;BME280;4068;42.158;24.732;2023-04-07T00:15:03;99450.38;;;5.87;53.78
8051;BME280;4068;42.158;24.732;2023-04-07T00:17:28;99459.75;;;5.91;54.72
8051;BME280;4068;42.158;24.732;2023-04-07T00:19:53;99465.22;;;5.88;54.38
8051;BME280;4068;42.158;24.732;2023-04-07T00:22:19;99472.47;;;5.84;54.55
8051;BME280;4068;42.158;24.732;2023-04-07T00:24:44;99464.13;;;5.78;54.59
8051;BME280;4068;42.158;24.732;2023-04-07T00:27:10;99429.53;;;5.55;54.30
8051;BME280;4068;42.158;24.732;2023-04-07T00:29:35;99430.47;;;5.54;54.20
8051;BME280;4068;42.158;24.732;2023-04-07T00:32:00;99475.03;;;5.72;54.54
8051;BME280;4068;42.158;24.732;2023-04-07T00:34:26;99474.16;;;5.71;54.52
8051;BME280;4068;42.158;24.732;2023-04-07T00:36:51;99464.47;;;5.57;54.69
8051;BME280;4068;42.158;24.732;2023-04-07T00:39:18;99468.59;;;5.61;54.88
8051;BME280;4068;42.158;24.732;2023-04-07T00:41:47;99467.38;;;5.52;55.12
8051;BME280;4068;42.158;24.732;2023-04-07T00:44:13;99476.31;;;5.50;55.52
8051;BME280;4068;42.158;24.732;2023-04-07T00:46:38;99477.16;;;5.50;55.75
8051;BME280;4068;42.158;24.732;2023-04-07T00:49:05;99438.34;;;5.25;55.74
8051;BME280;4068;42.158;24.732;2023-04-07T00:51:31;99479.13;;;5.47;56.41
8051;BME280;4068;42.158;24.732;2023-04-07T00:53:58;99484.09;;;5.51;56.21
8051;BME280;4068;42.158;24.732;2023-04-07T00:56:24;99479.81;;;5.50;56.71
8051;BME280;4068;42.158;24.732;2023-04-07T00:58:49;99459.41;;;5.40;57.13
8051;BME280;4068;42.158;24.732;2023-04-07T01:01:21;99473.69;;;5.50;56.83
8051;BME280;4068;42.158;24.732;2023-04-07T01:04:38;99472.84;;;5.49;56.94
8051;BME280;4068;42.158;24.732;2023-04-07T01:07:12;99459.22;;;5.43;56.67
8051;BME280;4068;42.158;24.732;2023-04-07T01:10:04;99475.38;;;5.51;55.98
8051;BME280;4068;42.158;24.732;2023-04-07T01:12:46;99468.25;;;5.53;55.32
8051;BME280;4068;42.158;24.732;2023-04-07T01:15:19;99459.59;;;5.51;54.75
8051;BME280;4068;42.158;24.732;2023-04-07T01:17:48;99439.13;;;5.27;55.24
8051;BME280;4068;42.158;24.732;2023-04-07T01:20:20;99471.53;;;5.42;55.67
8051;BME280;4068;42.158;24.732;2023-04-07T01:22:53;99436.66;;;5.24;55.54
8051;BME280;4068;42.158;24.732;2023-04-07T01:25:43;99477.38;;;5.47;55.31
8051;BME280;4068;42.158;24.732;2023-04-07T01:28:43;99475.19;;;5.40;55.73
8051;BME280;4068;42.158;24.732;2023-04-07T01:31:11;99479.13;;;5.32;55.90
8051;BME280;4068;42.158;24.732;2023-04-07T01:33:38;99482.66;;;5.31;55.69
8051;BME280;4068;42.158;24.732;2023-04-07T01:36:06;99487.28;;;5.28;56.11
8051;BME280;4068;42.158;24.732;2023-04-07T01:38:32;99476.88;;;5.26;55.92
8051;BME280;4068;42.158;24.732;2023-04-07T01:40:59;99489.22;;;5.24;55.81
8051;BME280;4068;42.158;24.732;2023-04-07T01:43:26;99486.69;;;5.23;56.13
8051;BME280;4068;42.158;24.732;2023-04-07T01:45:53;99483.50;;;5.17;56.40
8051;BME280;4068;42.158;24.732;2023-04-07T01:48:19;99447.31;;;4.92;56.66
8051;BME280;4068;42.158;24.732;2023-04-07T01:50:45;99481.91;;;5.15;56.96
8051;BME280;4068;42.158;24.732;2023-04-07T01:53:13;99488.88;;;5.16;57.39
8051;BME280;4068;42.158;24.732;2023-04-07T01:55:40;99472.78;;;5.06;57.68
8051;BME280;4068;42.158;24.732;2023-04-07T01:58:06;99470.34;;;5.03;57.88
8051;BME280;4068;42.158;24.732;2023-04-07T02:00:32;99480.84;;;5.03;58.35
8051;BME280;4068;42.158;24.732;2023-04-07T02:03:05;99485.25;;;5.03;58.25
8051;BME280;4068;42.158;24.732;2023-04-07T02:05:34;99484.69;;;4.97;58.47
8051;BME280;4068;42.158;24.732;2023-04-07T02:08:04;99484.75;;;4.96;58.79
8051;BME280;4068;42.158;24.732;2023-04-07T02:10:34;99471.88;;;4.91;58.20
8051;BME280;4068;42.158;24.732;2023-04-07T02:13:04;99472.16;;;4.87;58.00
8051;BME280;4068;42.158;24.732;2023-04-07T02:15:30;99488.97;;;4.98;57.78
8051;BME280;4068;42.158;24.732;2023-04-07T02:17:58;99479.81;;;5.06;56.91
8051;BME280;4068;42.158;24.732;2023-04-07T02:20:25;99481.50;;;5.07;57.14
8051;BME280;4068;42.158;24.732;2023-04-07T02:22:52;99473.63;;;5.07;56.96
8051;BME280;4068;42.158;24.732;2023-04-07T02:25:26;99478.78;;;5.08;56.22
8051;BME280;4068;42.158;24.732;2023-04-07T02:27:53;99477.00;;;5.09;55.95
8051;BME280;4068;42.158;24.732;2023-04-07T02:30:19;99480.13;;;5.15;55.91
8051;BME280;4068;42.158;24.732;2023-04-07T02:32:45;99477.94;;;5.08;56.13
8051;BME280;4068;42.158;24.732;2023-04-07T02:35:11;99460.84;;;5.00;56.30
8051;BME280;4068;42.158;24.732;2023-04-07T02:37:37;99447.59;;;4.88;56.33
8051;BME280;4068;42.158;24.732;2023-04-07T02:40:04;99486.13;;;5.03;56.44
8051;BME280;4068;42.158;24.732;2023-04-07T02:42:29;99484.59;;;4.99;56.62
8051;BME280;4068;42.158;24.732;2023-04-07T02:44:55;99484.75;;;4.96;56.50
8051;BME280;4068;42.158;24.732;2023-04-07T02:47:20;99482.31;;;4.93;56.34
8051;BME280;4068;42.158;24.732;2023-04-07T02:49:46;99490.88;;;4.96;55.59
8051;BME280;4068;42.158;24.732;2023-04-07T02:52:11;99486.63;;;4.94;55.62
8051;BME280;4068;42.158;24.732;2023-04-07T02:54:37;99485.94;;;4.90;55.61
8051;BME280;4068;42.158;24.732;2023-04-07T02:57:02;99485.34;;;5.01;55.52
8051;BME280;4068;42.158;24.732;2023-04-07T02:59:28;99475.72;;;4.86;55.82
8051;BME280;4068;42.158;24.732;2023-04-07T03:01:53;99493.09;;;4.88;56.41
8051;BME280;4068;42.158;24.732;2023-04-07T03:04:18;99488.28;;;4.80;56.56
8051;BME280;4068;42.158;24.732;2023-04-07T03:06:44;99491.28;;;4.89;56.45
8051;BME280;4068;42.158;24.732;2023-04-07T03:09:09;99494.78;;;4.89;56.62
8051;BME280;4068;42.158;24.732;2023-04-07T03:11:35;99497.31;;;4.91;56.78
8051;BME280;4068;42.158;24.732;2023-04-07T03:14:00;99493.69;;;4.93;56.48
8051;BME280;4068;42.158;24.732;2023-04-07T03:16:26;99484.28;;;4.89;56.95
8051;BME280;4068;42.158;24.732;2023-04-07T03:18:51;99499.88;;;4.92;57.66
8051;BME280;4068;42.158;24.732;2023-04-07T03:21:16;99498.16;;;4.91;61.23
8051;BME280;4068;42.158;24.732;2023-04-07T03:23:42;99455.72;;;4.83;65.97
8051;BME280;4068;42.158;24.732;2023-04-07T03:26:07;99492.63;;;5.26;66.63
8051;BME280;4068;42.158;24.732;2023-04-07T03:28:33;99488.22;;;5.41;63.97
8051;BME280;4068;42.158;24.732;2023-04-07T03:30:58;99493.25;;;5.60;60.28
8051;BME280;4068;42.158;24.732;2023-04-07T03:33:24;99500.66;;;5.68;60.39
8051;BME280;4068;42.158;24.732;2023-04-07T03:35:49;99499.16;;;5.78;58.06
8051;BME280;4068;42.158;24.732;2023-04-07T03:38:15;99506.84;;;5.81;56.50
8051;BME280;4068;42.158;24.732;2023-04-07T03:40:40;99505.09;;;5.82;55.83
8051;BME280;4068;42.158;24.732;2023-04-07T03:43:05;99508.47;;;5.98;56.38
8051;BME280;4068;42.158;24.732;2023-04-07T03:45:36;99481.78;;;5.90;56.11
8051;BME280;4068;42.158;24.732;2023-04-07T03:48:02;99513.72;;;6.13;54.19
8051;BME280;4068;42.158;24.732;2023-04-07T03:50:27;99516.97;;;6.03;54.09
8051;BME280;4068;42.158;24.732;2023-04-07T03:52:53;99524.44;;;5.95;53.67
8051;BME280;4068;42.158;24.732;2023-04-07T03:55:18;99522.94;;;5.91;54.10
8051;BME280;4068;42.158;24.732;2023-04-07T03:57:44;99485.53;;;5.57;54.69
8051;BME280;4068;42.158;24.732;2023-04-07T04:00:10;99523.59;;;5.66;55.44
8051;BME280;4068;42.158;24.732;2023-04-07T04:02:36;99494.25;;;5.43;55.68
8051;BME280;4068;42.158;24.732;2023-04-07T04:05:02;99524.63;;;5.49;56.33
8051;BME280;4068;42.158;24.732;2023-04-07T04:07:27;99512.38;;;5.33;56.47
8051;BME280;4068;42.158;24.732;2023-04-07T04:09:53;99527.44;;;5.46;56.45
8051;BME280;4068;42.158;24.732;2023-04-07T04:12:18;99506.25;;;5.33;56.33
8051;BME280;4068;42.158;24.732;2023-04-07T04:14:44;99517.44;;;5.36;56.74
8051;BME280;4068;42.158;24.732;2023-04-07T04:17:09;99531.91;;;5.44;56.41
8051;BME280;4068;42.158;24.732;2023-04-07T04:19:35;99528.91;;;5.50;55.86
8051;BME280;4068;42.158;24.732;2023-04-07T04:22:00;99539.28;;;5.53;56.08
8051;BME280;4068;42.158;24.732;2023-04-07T04:24:25;99539.56;;;5.63;54.93
8051;BME280;4068;42.158;24.732;2023-04-07T04:26:51;99542.03;;;5.66;54.96
8051;BME280;4068;42.158;24.732;2023-04-07T04:29:16;99545.59;;;5.65;55.30
8051;BME280;4068;42.158;24.732;2023-04-07T04:31:42;99553.09;;;5.71;55.05
8051;BME280;4068;42.158;24.732;2023-04-07T04:34:07;99550.28;;;5.74;54.78
8051;BME280;4068;42.158;24.732;2023-04-07T04:36:32;99516.44;;;5.68;54.48
8051;BME280;4068;42.158;24.732;2023-04-07T04:38:58;99546.44;;;5.94;54.79
8051;BME280;4068;42.158;24.732;2023-04-07T04:41:23;99531.41;;;5.82;54.81
8051;BME280;4068;42.158;24.732;2023-04-07T04:43:49;99539.00;;;5.86;54.98
8051;BME280;4068;42.158;24.732;2023-04-07T04:46:16;99558.16;;;6.04;54.44
8051;BME280;4068;42.158;24.732;2023-04-07T04:48:41;99536.47;;;5.85;54.94
8051;BME280;4068;42.158;24.732;2023-04-07T04:51:06;99543.47;;;6.00;54.05
8051;BME280;4068;42.158;24.732;2023-04-07T04:53:32;99550.25;;;6.04;53.98
8051;BME280;4068;42.158;24.732;2023-04-07T04:55:57;99572.13;;;6.19;54.09
8051;BME280;4068;42.158;24.732;2023-04-07T04:58:23;99566.69;;;6.22;53.82
8051;BME280;4068;42.158;24.732;2023-04-07T05:00:48;99550.03;;;6.22;54.35
8051;BME280;4068;42.158;24.732;2023-04-07T05:03:13;99563.38;;;6.48;53.74
8051;BME280;4068;42.158;24.732;2023-04-07T05:05:39;99584.22;;;6.65;53.16
8051;BME280;4068;42.158;24.732;2023-04-07T05:08:05;99566.88;;;6.76;52.62
8051;BME280;4068;42.158;24.732;2023-04-07T05:10:30;99585.66;;;6.84;52.79
8051;BME280;4068;42.158;24.732;2023-04-07T05:12:55;99570.22;;;6.92;52.67
8051;BME280;4068;42.158;24.732;2023-04-07T05:15:21;99577.84;;;7.09;51.89
8051;BME280;4068;42.158;24.732;2023-04-07T05:17:46;99583.50;;;7.31;51.31
8051;BME280;4068;42.158;24.732;2023-04-07T05:20:14;99585.16;;;7.59;50.75
8051;BME280;4068;42.158;24.732;2023-04-07T05:22:40;99588.97;;;7.81;50.36
8051;BME280;4068;42.158;24.732;2023-04-07T05:25:06;99587.41;;;8.04;48.57
8051;BME280;4068;42.158;24.732;2023-04-07T05:27:31;99592.56;;;8.31;48.11
8051;BME280;4068;42.158;24.732;2023-04-07T05:29:57;99583.66;;;8.45;46.44
8051;BME280;4068;42.158;24.732;2023-04-07T05:32:23;99581.16;;;8.80;45.66
8051;BME280;4068;42.158;24.732;2023-04-07T05:34:48;99546.00;;;8.91;45.22
8051;BME280;4068;42.158;24.732;2023-04-07T05:37:14;99589.25;;;9.39;44.35
8051;BME280;4068;42.158;24.732;2023-04-07T05:39:40;99576.44;;;9.57;43.96
8051;BME280;4068;42.158;24.732;2023-04-07T05:42:05;99588.19;;;9.99;42.23
8051;BME280;4068;42.158;24.732;2023-04-07T05:44:31;99587.56;;;9.96;42.39
8051;BME280;4068;42.158;24.732;2023-04-07T05:46:56;99566.63;;;10.04;40.57
8051;BME280;4068;42.158;24.732;2023-04-07T05:49:22;99591.31;;;10.27;40.44
8051;BME280;4068;42.158;24.732;2023-04-07T05:51:47;99602.44;;;10.44;40.23
8051;BME280;4068;42.158;24.732;2023-04-07T05:54:12;99571.72;;;10.41;39.17
8051;BME280;4068;42.158;24.732;2023-04-07T05:56:38;99598.09;;;10.54;38.76
8051;BME280;4068;42.158;24.732;2023-04-07T05:59:03;99573.78;;;10.49;38.29
8051;BME280;4068;42.158;24.732;2023-04-07T06:01:29;99605.47;;;10.62;38.57
8051;BME280;4068;42.158;24.732;2023-04-07T06:03:55;99604.22;;;10.77;37.88
8051;BME280;4068;42.158;24.732;2023-04-07T06:06:20;99580.81;;;10.82;37.93
8051;BME280;4068;42.158;24.732;2023-04-07T06:08:46;99608.38;;;11.02;37.01
8051;BME280;4068;42.158;24.732;2023-04-07T06:11:11;99601.50;;;11.00;36.49
8051;BME280;4068;42.158;24.732;2023-04-07T06:13:37;99604.16;;;11.00;36.55
8051;BME280;4068;42.158;24.732;2023-04-07T06:16:02;99586.66;;;10.65;36.92
8051;BME280;4068;42.158;24.732;2023-04-07T06:18:28;99601.19;;;10.93;37.51
8051;BME280;4068;42.158;24.732;2023-04-07T06:20:54;99610.31;;;11.12;37.81
8051;BME280;4068;42.158;24.732;2023-04-07T06:23:19;99605.22;;;11.09;38.04
8051;BME280;4068;42.158;24.732;2023-04-07T06:25:45;99611.13;;;11.12;38.42
8051;BME280;4068;42.158;24.732;2023-04-07T06:28:12;99577.84;;;11.08;37.78
8051;BME280;4068;42.158;24.732;2023-04-07T06:30:37;99605.16;;;11.31;37.41
8051;BME280;4068;42.158;24.732;2023-04-07T06:33:03;99613.09;;;11.31;37.56
8051;BME280;4068;42.158;24.732;2023-04-07T06:35:28;99603.53;;;11.19;37.27
8051;BME280;4068;42.158;24.732;2023-04-07T06:37:54;99592.22;;;10.94;37.72
8051;BME280;4068;42.158;24.732;2023-04-07T06:40:19;99588.75;;;10.94;37.73
8051;BME280;4068;42.158;24.732;2023-04-07T06:42:45;99598.97;;;10.98;37.74
8051;BME280;4068;42.158;24.732;2023-04-07T06:45:10;99591.84;;;11.10;38.27
8051;BME280;4068;42.158;24.732;2023-04-07T06:47:35;99614.63;;;11.45;37.52
8051;BME280;4068;42.158;24.732;2023-04-07T06:50:02;99609.97;;;11.58;37.29
8051;BME280;4068;42.158;24.732;2023-04-07T06:52:28;99606.41;;;11.48;36.18
8051;BME280;4068;42.158;24.732;2023-04-07T06:54:53;99594.94;;;11.48;35.53
8051;BME280;4068;42.158;24.732;2023-04-07T06:57:18;99614.53;;;11.68;35.82
8051;BME280;4068;42.158;24.732;2023-04-07T06:59:44;99617.88;;;11.70;35.92
8051;BME280;4068;42.158;24.732;2023-04-07T07:02:10;99632.09;;;11.80;35.21
8051;BME280;4068;42.158;24.732;2023-04-07T07:04:35;99620.94;;;11.65;35.37
8051;BME280;4068;42.158;24.732;2023-04-07T07:07:01;99592.75;;;11.74;34.80
8051;BME280;4068;42.158;24.732;2023-04-07T07:09:27;99617.75;;;11.92;35.05
8051;BME280;4068;42.158;24.732;2023-04-07T07:11:52;99619.00;;;12.09;35.03
8051;BME280;4068;42.158;24.732;2023-04-07T07:14:18;99625.63;;;12.15;35.07
8051;BME280;4068;42.158;24.732;2023-04-07T07:16:43;99621.53;;;12.11;35.00
8051;BME280;4068;42.158;24.732;2023-04-07T07:19:09;99621.47;;;12.01;34.77
8051;BME280;4068;42.158;24.732;2023-04-07T07:21:35;99618.97;;;11.88;34.48
8051;BME280;4068;42.158;24.732;2023-04-07T07:24:00;99629.31;;;11.82;35.04
8051;BME280;4068;42.158;24.732;2023-04-07T07:26:26;99621.91;;;11.64;34.90
8051;BME280;4068;42.158;24.732;2023-04-07T07:28:51;99615.84;;;11.41;34.81
8051;BME280;4068;42.158;24.732;2023-04-07T07:31:17;99617.28;;;11.13;35.62
8051;BME280;4068;42.158;24.732;2023-04-07T07:33:43;99627.38;;;11.30;35.37
8051;BME280;4068;42.158;24.732;2023-04-07T07:36:10;99624.72;;;11.30;35.10
8051;BME280;4068;42.158;24.732;2023-04-07T07:38:36;99596.84;;;10.92;35.28
8051;BME280;4068;42.158;24.732;2023-04-07T07:41:01;99612.84;;;11.02;36.92
8051;BME280;4068;42.158;24.732;2023-04-07T07:43:27;99614.19;;;10.96;36.79
8051;BME280;4068;42.158;24.732;2023-04-07T07:45:52;99621.91;;;10.99;36.71
8051;BME280;4068;42.158;24.732;2023-04-07T07:48:18;99624.81;;;10.96;37.69
8051;BME280;4068;42.158;24.732;2023-04-07T07:50:43;99623.13;;;10.84;37.52
8051;BME280;4068;42.158;24.732;2023-04-07T07:53:09;99593.03;;;10.62;37.57
8051;BME280;4068;42.158;24.732;2023-04-07T07:55:35;99607.34;;;10.82;37.95
8051;BME280;4068;42.158;24.732;2023-04-07T07:58:00;99618.31;;;10.89;37.69
8051;BME280;4068;42.158;24.732;2023-04-07T08:00:26;99589.19;;;10.44;38.63
8051;BME280;4068;42.158;24.732;2023-04-07T08:02:51;99622.78;;;10.66;38.23
8051;BME280;4068;42.158;24.732;2023-04-07T08:05:17;99591.47;;;10.60;38.65
8051;BME280;4068;42.158;24.732;2023-04-07T08:07:43;99585.19;;;10.61;38.62
8051;BME280;4068;42.158;24.732;2023-04-07T08:10:08;99610.47;;;10.87;39.47
8051;BME280;4068;42.158;24.732;2023-04-07T08:12:34;99602.38;;;11.00;38.41
8051;BME280;4068;42.158;24.732;2023-04-07T08:14:59;99587.66;;;10.96;38.46
8051;BME280;4068;42.158;24.732;2023-04-07T08:17:25;99599.31;;;11.16;38.62
8051;BME280;4068;42.158;24.732;2023-04-07T08:19:50;99600.44;;;11.35;38.14
8051;BME280;4068;42.158;24.732;2023-04-07T08:22:16;99596.16;;;11.44;37.78
8051;BME280;4068;42.158;24.732;2023-04-07T08:24:43;99597.59;;;11.48;37.44
8051;BME280;4068;42.158;24.732;2023-04-07T08:27:09;99597.22;;;11.52;37.52
8051;BME280;4068;42.158;24.732;2023-04-07T08:29:34;99590.47;;;11.48;36.90
8051;BME280;4068;42.158;24.732;2023-04-07T08:32:00;99597.09;;;11.54;36.54
8051;BME280;4068;42.158;24.732;2023-04-07T08:34:25;99599.94;;;11.62;36.43
8051;BME280;4068;42.158;24.732;2023-04-07T08:36:51;99574.81;;;11.45;36.40
8051;BME280;4068;42.158;24.732;2023-04-07T08:39:16;99597.03;;;11.65;36.50
8051;BME280;4068;42.158;24.732;2023-04-07T08:41:42;99588.44;;;11.73;35.95
8051;BME280;4068;42.158;24.732;2023-04-07T08:44:10;99588.28;;;11.74;35.86
8051;BME280;4068;42.158;24.732;2023-04-07T08:46:37;99592.63;;;11.97;36.21
8051;BME280;4068;42.158;24.732;2023-04-07T08:49:07;99597.25;;;11.95;35.77
8051;BME280;4068;42.158;24.732;2023-04-07T08:51:34;99550.97;;;11.55;36.15
8051;BME280;4068;42.158;24.732;2023-04-07T08:54:09;99576.44;;;11.57;36.62
8051;BME280;4068;42.158;24.732;2023-04-07T08:56:37;99572.47;;;11.73;36.59
8051;BME280;4068;42.158;24.732;2023-04-07T08:59:09;99580.53;;;11.62;36.77
8051;BME280;4068;42.158;24.732;2023-04-07T09:01:36;99572.47;;;11.94;36.63
8051;BME280;4068;42.158;24.732;2023-04-07T09:04:02;99553.50;;;11.99;36.05
8051;BME280;4068;42.158;24.732;2023-04-07T09:06:32;99589.16;;;12.27;35.44
8051;BME280;4068;42.158;24.732;2023-04-07T09:08:59;99587.56;;;12.15;35.33
8051;BME280;4068;42.158;24.732;2023-04-07T09:11:28;99579.72;;;12.13;36.37
8051;BME280;4068;42.158;24.732;2023-04-07T09:13:55;99580.34;;;11.96;36.45
8051;BME280;4068;42.158;24.732;2023-04-07T09:16:21;99571.50;;;11.95;36.72
8051;BME280;4068;42.158;24.732;2023-04-07T09:18:48;99577.16;;;12.33;36.67
8051;BME280;4068;42.158;24.732;2023-04-07T09:21:13;99586.88;;;12.53;36.21
8051;BME280;4068;42.158;24.732;2023-04-07T09:23:41;99583.16;;;12.35;35.66
8051;BME280;4068;42.158;24.732;2023-04-07T09:26:26;99554.44;;;12.19;36.14
8051;BME280;4068;42.158;24.732;2023-04-07T09:29:00;99570.41;;;12.69;35.92
8051;BME280;4068;42.158;24.732;2023-04-07T09:31:44;99566.88;;;12.59;35.79
8051;BME280;4068;42.158;24.732;2023-04-07T09:34:37;99559.22;;;12.85;36.17
8051;BME280;4068;42.158;24.732;2023-04-07T09:37:04;99537.25;;;13.03;36.27
8051;BME280;4068;42.158;24.732;2023-04-07T09:39:30;99549.72;;;12.83;35.77
8051;BME280;4068;42.158;24.732;2023-04-07T09:41:56;99556.44;;;12.97;35.99
8051;BME280;4068;42.158;24.732;2023-04-07T09:44:23;99546.19;;;12.92;36.72
8051;BME280;4068;42.158;24.732;2023-04-07T09:46:55;99546.91;;;13.13;36.50
8051;BME280;4068;42.158;24.732;2023-04-07T09:49:21;99544.81;;;13.17;36.12
8051;BME280;4068;42.158;24.732;2023-04-07T09:52:01;99546.22;;;13.21;35.91
8051;BME280;4068;42.158;24.732;2023-04-07T09:54:36;99522.41;;;13.20;36.04
8051;BME280;4068;42.158;24.732;2023-04-07T09:57:07;99543.13;;;13.06;35.55
8051;BME280;4068;42.158;24.732;2023-04-07T09:59:34;99546.38;;;13.20;35.50
8051;BME280;4068;42.158;24.732;2023-04-07T10:02:01;99529.53;;;13.29;35.38
8051;BME280;4068;42.158;24.732;2023-04-07T10:04:27;99547.47;;;13.46;35.96
8051;BME280;4068;42.158;24.732;2023-04-07T10:06:53;99554.94;;;13.43;36.62
8051;BME280;4068;42.158;24.732;2023-04-07T10:09:24;99544.41;;;13.51;36.33
8051;BME280;4068;42.158;24.732;2023-04-07T10:11:51;99524.44;;;13.75;35.74
8051;BME280;4068;42.158;24.732;2023-04-07T10:14:21;99517.47;;;14.02;34.90
8051;BME280;4068;42.158;24.732;2023-04-07T10:16:48;99549.22;;;13.95;35.31
8051;BME280;4068;42.158;24.732;2023-04-07T10:19:14;99548.88;;;14.08;34.79
8051;BME280;4068;42.158;24.732;2023-04-07T10:21:42;99547.88;;;14.19;34.61
8051;BME280;4068;42.158;24.732;2023-04-07T10:24:54;99538.94;;;14.10;35.04
8051;BME280;4068;42.158;24.732;2023-04-07T10:26:57;99545.63;;;14.24;33.90
8051;BME280;4068;42.158;24.732;2023-04-07T10:29:24;99549.84;;;14.17;34.17
8051;BME280;4068;42.158;24.732;2023-04-07T10:31:51;99548.84;;;13.80;34.46
8051;BME280;4068;42.158;24.732;2023-04-07T10:37:23;99537.63;;;13.76;33.99
8051;BME280;4068;42.158;24.732;2023-04-07T10:39:50;99529.53;;;13.68;34.96
8051;BME280;4068;42.158;24.732;2023-04-07T10:45:08;99538.88;;;14.20;34.71
8051;BME280;4068;42.158;24.732;2023-04-07T10:48:09;99537.34;;;14.17;34.70
8051;BME280;4068;42.158;24.732;2023-04-07T10:50:35;99522.53;;;14.32;34.15
8051;BME280;4068;42.158;24.732;2023-04-07T10:53:07;99505.94;;;14.39;33.53
8051;BME280;4068;42.158;24.732;2023-04-07T10:55:40;99541.78;;;14.26;33.58
8051;BME280;4068;42.158;24.732;2023-04-07T11:00:37;99534.94;;;13.86;34.89
8051;BME280;4068;42.158;24.732;2023-04-07T11:03:12;99535.38;;;13.72;36.17
8051;BME280;4068;42.158;24.732;2023-04-07T11:05:41;99533.31;;;14.03;35.23
8051;BME280;4068;42.158;24.732;2023-04-07T11:08:07;99509.44;;;14.11;35.12
8051;BME280;4068;42.158;24.732;2023-04-07T11:10:34;99540.31;;;14.14;34.88
8051;BME280;4068;42.158;24.732;2023-04-07T11:13:06;99535.47;;;14.00;34.81
8051;BME280;4068;42.158;24.732;2023-04-07T11:15:34;99514.19;;;13.80;34.48
8051;BME280;4068;42.158;24.732;2023-04-07T11:18:13;99538.22;;;14.08;34.58
8051;BME280;4068;42.158;24.732;2023-04-07T11:20:45;99505.47;;;13.88;34.63
8051;BME280;4068;42.158;24.732;2023-04-07T11:23:12;99524.53;;;14.21;33.99
8051;BME280;4068;42.158;24.732;2023-04-07T11:25:41;99534.31;;;14.58;34.58
8051;BME280;4068;42.158;24.732;2023-04-07T11:28:09;99525.19;;;14.88;33.85
8051;BME280;4068;42.158;24.732;2023-04-07T11:30:35;99520.28;;;15.01;33.75
8051;BME280;4068;42.158;24.732;2023-04-07T11:33:01;99507.69;;;14.76;33.50
8051;BME280;4068;42.158;24.732;2023-04-07T11:35:27;99525.31;;;14.69;34.18
8051;BME280;4068;42.158;24.732;2023-04-07T11:37:59;99517.09;;;14.24;35.17
8051;BME280;4068;42.158;24.732;2023-04-07T11:40:35;99528.56;;;14.07;34.79
8051;BME280;4068;42.158;24.732;2023-04-07T11:43:02;99527.66;;;13.88;35.25
8051;BME280;4068;42.158;24.732;2023-04-07T11:45:39;99489.09;;;13.73;35.36
8051;BME280;4068;42.158;24.732;2023-04-07T11:48:05;99489.69;;;14.04;36.00
8051;BME280;4068;42.158;24.732;2023-04-07T11:50:49;99517.00;;;14.44;35.64
8051;BME280;4068;42.158;24.732;2023-04-07T11:53:24;99515.63;;;14.67;35.70
8051;BME280;4068;42.158;24.732;2023-04-07T11:56:01;99509.31;;;14.87;35.30
8051;BME280;4068;42.158;24.732;2023-04-07T11:58:27;99498.84;;;14.93;34.79
8051;BME280;4068;42.158;24.732;2023-04-07T12:01:00;99513.03;;;15.12;34.34
8051;BME280;4068;42.158;24.732;2023-04-07T12:03:29;99514.25;;;14.81;34.76
8051;BME280;4068;42.158;24.732;2023-04-07T12:05:54;99476.38;;;14.78;35.10
8051;BME280;4068;42.158;24.732;2023-04-07T12:08:20;99508.47;;;15.22;34.63
8051;BME280;4068;42.158;24.732;2023-04-07T12:10:46;99504.41;;;14.82;34.98
8051;BME280;4068;42.158;24.732;2023-04-07T12:13:12;99498.22;;;14.36;34.69
8051;BME280;4068;42.158;24.732;2023-04-07T12:15:37;99483.81;;;14.28;34.77
8051;BME280;4068;42.158;24.732;2023-04-07T12:18:03;99495.81;;;14.14;34.97
8051;BME280;4068;42.158;24.732;2023-04-07T12:20:29;99520.75;;;13.95;35.59
8051;BME280;4068;42.158;24.732;2023-04-07T12:22:54;99511.31;;;14.01;36.08
8051;BME280;4068;42.158;24.732;2023-04-07T12:25:20;99512.59;;;14.25;35.39
8051;BME280;4068;42.158;24.732;2023-04-07T12:27:45;99478.84;;;14.15;35.57
8051;BME280;4068;42.158;24.732;2023-04-07T12:30:11;99513.69;;;14.60;35.33
8051;BME280;4068;42.158;24.732;2023-04-07T12:32:37;99515.44;;;14.51;35.13
8051;BME280;4068;42.158;24.732;2023-04-07T12:35:03;99494.38;;;14.48;35.03
8051;BME280;4068;42.158;24.732;2023-04-07T12:37:29;99505.59;;;14.79;34.97
8051;BME280;4068;42.158;24.732;2023-04-07T12:39:55;99484.13;;;14.89;34.58
8051;BME280;4068;42.158;24.732;2023-04-07T12:42:21;99473.34;;;15.17;35.09
8051;BME280;4068;42.158;24.732;2023-04-07T12:44:46;99490.19;;;15.35;34.42
8051;BME280;4068;42.158;24.732;2023-04-07T12:47:12;99500.72;;;15.63;34.80
8051;BME280;4068;42.158;24.732;2023-04-07T12:49:37;99485.31;;;15.57;34.93
8051;BME280;4068;42.158;24.732;2023-04-07T12:52:03;99504.16;;;15.74;34.78
8051;BME280;4068;42.158;24.732;2023-04-07T12:54:30;99487.28;;;15.47;35.63
8051;BME280;4068;42.158;24.732;2023-04-07T12:56:56;99495.75;;;15.42;35.41
8051;BME280;4068;42.158;24.732;2023-04-07T12:59:22;99458.72;;;15.03;35.39
8051;BME280;4068;42.158;24.732;2023-04-07T13:01:48;99468.09;;;15.51;36.02
8051;BME280;4068;42.158;24.732;2023-04-07T13:04:14;99478.19;;;15.66;36.03
8051;BME280;4068;42.158;24.732;2023-04-07T13:06:39;99491.94;;;15.97;36.14
8051;BME280;4068;42.158;24.732;2023-04-07T13:09:05;99486.19;;;15.84;35.55
8051;BME280;4068;42.158;24.732;2023-04-07T13:11:30;99454.63;;;15.61;35.94
8051;BME280;4068;42.158;24.732;2023-04-07T13:13:56;99486.38;;;15.64;36.71
8051;BME280;4068;42.158;24.732;2023-04-07T13:16:21;99463.00;;;15.14;36.76
8051;BME280;4068;42.158;24.732;2023-04-07T13:18:47;99478.28;;;15.04;37.05
8051;BME280;4068;42.158;24.732;2023-04-07T13:21:12;99448.56;;;15.07;37.44
8051;BME280;4068;42.158;24.732;2023-04-07T13:23:37;99494.41;;;15.38;37.61